Time;durP1;ratioP1;P1;durP2;ratioP2;P2;SDS_P1;SDS_P2;PMS_P1;PMS_P2;Temp;Humidity;BMP_temperature;BMP_pressure;BME280_temperature;BME280_humidity;BME280_pressure;Samples;Min_cycle;Max_cycle;Signal;HPM_P1;HPM_P2
2022/08/05 00:01:57;;;;;;;11.67;7.00;;;26.60;99.90;;;;;;4975811;28;20188;-66
2022/08/05 00:04:23;;;;;;;48.43;8.40;;;26.60;99.90;;;;;;4975750;28;20172;-66
2022/08/05 00:06:49;;;;;;;11.90;6.87;;;26.60;99.90;;;;;;4975541;28;20888;-67
2022/08/05 00:09:15;;;;;;;14.97;6.27;;;26.60;99.90;;;;;;4975989;28;20177;-66
2022/08/05 00:11:41;;;;;;;12.30;7.40;;;26.60;99.90;;;;;;4976035;28;20639;-66
2022/08/05 00:14:06;;;;;;;16.37;7.20;;;26.60;99.90;;;;;;4976122;28;20260;-66
2022/08/05 00:16:33;;;;;;;12.03;7.00;;;26.50;99.90;;;;;;4975477;28;20207;-66
2022/08/05 00:18:59;;;;;;;9.70;7.63;;;26.40;99.90;;;;;;4975229;28;20547;-66
2022/08/05 00:21:25;;;;;;;10.53;6.70;;;26.30;99.90;;;;;;4975819;28;20417;-66
2022/08/05 00:23:51;;;;;;;13.23;6.43;;;26.20;99.90;;;;;;4975747;28;20188;-66
2022/08/05 00:26:16;;;;;;;19.40;6.87;;;26.20;99.90;;;;;;4975853;28;20204;-65
2022/08/05 00:28:43;;;;;;;13.80;6.40;;;26.20;99.90;;;;;;4957973;28;20351;-65
2022/08/05 00:31:09;;;;;;;8.70;6.60;;;26.30;99.90;;;;;;4976013;28;20176;-65
2022/08/05 00:33:35;;;;;;;9.93;6.27;;;26.40;99.90;;;;;;4975119;28;20400;-64
2022/08/05 00:36:00;;;;;;;10.93;6.23;;;26.40;99.90;;;;;;4975566;28;20184;-65
2022/08/05 00:38:26;;;;;;;8.27;6.10;;;26.40;99.90;;;;;;4973955;28;20193;-65
2022/08/05 00:40:55;;;;;;;12.73;6.40;;;26.30;99.90;;;;;;4975716;28;20173;-64
2022/08/05 00:43:21;;;;;;;25.07;8.50;;;26.30;99.90;;;;;;4975809;28;20181;-64
2022/08/05 00:45:47;;;;;;;14.23;6.63;;;26.30;99.90;;;;;;4975238;28;20464;-67
2022/08/05 00:48:19;;;;;;;10.73;6.77;;;26.30;99.90;;;;;;4974445;28;20189;-66
2022/08/05 00:50:46;;;;;;;9.67;6.30;;;26.20;99.90;;;;;;4955933;28;20412;-65
2022/08/05 00:53:15;;;;;;;15.60;6.10;;;26.20;99.90;;;;;;4971278;28;21020;-66
2022/08/05 00:55:41;;;;;;;8.70;6.03;;;26.10;99.90;;;;;;4971501;28;20435;-66
2022/08/05 00:58:07;;;;;;;9.33;6.67;;;26.00;99.90;;;;;;4953185;28;20840;-66
2022/08/05 01:00:33;;;;;;;7.57;6.33;;;26.10;99.90;;;;;;4971484;28;20404;-66
2022/08/05 01:02:59;;;;;;;12.90;6.80;;;26.00;99.90;;;;;;4970723;28;20172;-66
2022/08/05 01:05:25;;;;;;;14.20;7.30;;;25.90;99.90;;;;;;4971461;28;20665;-66
2022/08/05 01:07:51;;;;;;;7.10;6.07;;;26.00;99.90;;;;;;4952753;28;20216;-67
2022/08/05 01:10:20;;;;;;;10.10;5.70;;;26.00;99.90;;;;;;4970993;28;20905;-66
2022/08/05 01:12:54;;;;;;;9.53;6.23;;;26.00;99.90;;;;;;4970837;28;20415;-67
2022/08/05 01:15:31;;;;;;;21.03;7.10;;;26.00;99.90;;;;;;4971154;28;20412;-66
2022/08/05 01:18:04;;;;;;;12.57;6.90;;;26.00;99.90;;;;;;4970573;28;20488;-67
2022/08/05 01:20:54;;;;;;;18.63;7.47;;;26.10;99.90;;;;;;4970631;28;20416;-67
2022/08/05 01:23:34;;;;;;;11.73;6.33;;;26.20;99.90;;;;;;4970639;28;20397;-67
2022/08/05 01:26:25;;;;;;;7.30;6.10;;;26.00;99.90;;;;;;4971014;28;20475;-68
2022/08/05 01:28:52;;;;;;;7.40;6.70;;;26.00;99.90;;;;;;4970045;28;20778;-66
2022/08/05 01:31:40;;;;;;;10.90;6.70;;;25.80;99.90;;;;;;4970917;28;20419;-66
2022/08/05 01:34:14;;;;;;;12.33;6.87;;;25.60;99.90;;;;;;4970609;28;20411;-67
2022/08/05 01:36:46;;;;;;;13.87;6.80;;;25.60;99.90;;;;;;4970532;28;20431;-67
2022/08/05 01:39:13;;;;;;;8.90;5.97;;;25.50;99.90;;;;;;4970080;28;21071;-67
2022/08/05 01:41:41;;;;;;;9.57;5.37;;;25.50;99.90;;;;;;4973915;28;20415;-67
2022/08/05 01:44:08;;;;;;;12.27;6.40;;;25.30;99.90;;;;;;4974770;28;20432;-68
2022/08/05 01:46:35;;;;;;;9.17;6.17;;;25.40;99.90;;;;;;4974543;28;20471;-67
2022/08/05 01:49:03;;;;;;;8.80;6.30;;;25.50;99.90;;;;;;4974385;28;20555;-67
2022/08/05 01:51:35;;;;;;;29.43;8.13;;;25.50;99.90;;;;;;4975063;28;20474;-65
2022/08/05 01:54:04;;;;;;;20.33;7.27;;;25.60;99.90;;;;;;4974440;28;20420;-66
2022/08/05 01:56:33;;;;;;;11.90;7.07;;;25.50;99.90;;;;;;4974105;28;20432;-66
2022/08/05 01:59:02;;;;;;;15.13;6.50;;;25.50;99.90;;;;;;4973744;28;20416;-67
2022/08/05 02:01:28;;;;;;;9.57;6.80;;;25.50;99.90;;;;;;4973613;28;20405;-67
2022/08/05 02:03:56;;;;;;;10.27;6.43;;;25.50;99.90;;;;;;4973849;28;20788;-67
2022/08/05 02:06:22;;;;;;;9.10;6.73;;;25.50;99.90;;;;;;4973720;28;20467;-67
2022/08/05 02:08:49;;;;;;;15.83;6.90;;;25.50;99.90;;;;;;4973021;28;20767;-66
2022/08/05 02:11:16;;;;;;;10.27;6.73;;;25.40;99.90;;;;;;4974202;28;20189;-66
2022/08/05 02:14:20;;;;;;;9.33;6.50;;;25.40;99.90;;;;;;4973972;28;21017;-66
2022/08/05 02:16:55;;;;;;;15.03;7.97;;;25.40;99.90;;;;;;4961105;28;20440;-66
2022/08/05 02:19:23;;;;;;;12.83;6.10;;;25.30;99.90;;;;;;4973569;28;20392;-67
2022/08/05 02:22:21;;;;;;;14.73;6.63;;;25.30;99.90;;;;;;4973279;28;20436;-67
2022/08/05 02:24:51;;;;;;;12.83;6.87;;;25.20;99.90;;;;;;4973151;28;20940;-67
2022/08/05 02:27:20;;;;;;;9.33;6.70;;;25.20;99.90;;;;;;4973208;28;20456;-66
2022/08/05 02:29:47;;;;;;;7.13;6.37;;;25.10;99.90;;;;;;4973579;28;20412;-67
2022/08/05 02:32:16;;;;;;;13.47;8.40;;;25.00;99.90;;;;;;4973271;28;20483;-66
2022/08/05 02:34:44;;;;;;;9.83;6.70;;;24.90;99.90;;;;;;4973710;28;20476;-66
2022/08/05 02:37:12;;;;;;;10.93;6.33;;;24.90;99.90;;;;;;4972875;28;20808;-67
2022/08/05 02:39:39;;;;;;;9.50;6.73;;;24.90;99.90;;;;;;4973098;28;20484;-67
2022/08/05 02:42:06;;;;;;;12.40;8.47;;;24.90;99.90;;;;;;4973383;28;20409;-68
2022/08/05 02:44:35;;;;;;;12.20;6.43;;;25.10;99.90;;;;;;4958671;28;21009;-66
2022/08/05 02:47:04;;;;;;;10.43;7.23;;;25.10;99.90;;;;;;4953397;28;20472;-66
2022/08/05 02:49:35;;;;;;;13.33;7.47;;;25.00;99.90;;;;;;4954179;28;20417;-66
2022/08/05 02:52:02;;;;;;;33.10;8.93;;;24.90;99.90;;;;;;4952830;28;20740;-66
2022/08/05 02:54:28;;;;;;;8.30;7.50;;;24.90;99.90;;;;;;4953976;28;20406;-67
2022/08/05 02:56:55;;;;;;;15.23;8.23;;;24.80;99.90;;;;;;4953830;28;20500;-67
2022/08/05 02:59:25;;;;;;;11.20;7.17;;;24.80;99.90;;;;;;4953406;28;20844;-67
2022/08/05 03:01:56;;;;;;;20.57;8.13;;;24.70;99.90;;;;;;4953853;28;20476;-66
2022/08/05 03:04:22;;;;;;;9.00;7.60;;;24.70;99.90;;;;;;4954378;28;20433;-67
2022/08/05 03:09:16;;;;;;;9.73;7.80;;;24.70;99.90;;;;;;4969872;28;20216;-61
2022/08/05 03:11:42;;;;;;;11.40;7.90;;;24.60;99.90;;;;;;4973087;28;20703;-62
2022/08/05 03:14:09;;;;;;;12.73;6.80;;;24.60;99.90;;;;;;4973286;28;20178;-61
2022/08/05 03:16:35;;;;;;;17.57;8.20;;;24.60;99.90;;;;;;4973179;28;20940;-60
2022/08/05 03:19:01;;;;;;;29.63;9.10;;;24.60;99.90;;;;;;4972169;28;20416;-61
2022/08/05 03:21:27;;;;;;;19.47;8.13;;;24.50;99.90;;;;;;4974377;28;20821;-57
2022/08/05 03:23:53;;;;;;;18.13;7.93;;;24.40;99.90;;;;;;4955599;28;20186;-61
2022/08/05 03:26:19;;;;;;;12.40;8.20;;;24.30;99.90;;;;;;4953815;29;20301;-58
2022/08/05 03:28:45;;;;;;;19.90;7.60;;;24.20;99.90;;;;;;4967494;28;20507;-61
2022/08/05 03:31:11;;;;;;;10.10;8.20;;;24.20;99.90;;;;;;4970741;28;20543;-62
2022/08/05 03:33:37;;;;;;;12.93;7.50;;;24.20;99.90;;;;;;4972496;28;20914;-62
2022/08/05 03:36:04;;;;;;;17.60;7.90;;;23.90;99.90;;;;;;4972858;28;20752;-60
2022/08/05 03:38:30;;;;;;;23.13;8.60;;;24.00;99.90;;;;;;4971010;28;20433;-59
2022/08/05 03:40:56;;;;;;;23.70;8.47;;;24.10;99.90;;;;;;4972228;28;20420;-62
2022/08/05 03:43:24;;;;;;;11.00;7.70;;;24.10;99.90;;;;;;4972188;28;20243;-62
2022/08/05 03:45:53;;;;;;;10.80;8.17;;;24.00;99.90;;;;;;4972206;28;20197;-60
2022/08/05 03:48:20;;;;;;;16.23;8.40;;;24.00;99.90;;;;;;4971184;28;20429;-62
2022/08/05 03:51:16;;;;;;;29.20;9.10;;;23.90;99.90;;;;;;4972170;28;20492;-63
2022/08/05 03:54:13;;;;;;;33.17;8.77;;;23.90;99.90;;;;;;4970441;28;20420;-61
2022/08/05 03:56:44;;;;;;;12.73;6.83;;;24.10;99.90;;;;;;4953030;28;20444;-59
2022/08/05 03:59:16;;;;;;;38.93;9.00;;;24.30;99.90;;;;;;4970811;28;20420;-60
2022/08/05 04:01:46;;;;;;;18.47;8.00;;;24.40;99.90;;;;;;4971870;28;20390;-58
2022/08/05 04:04:14;;;;;;;43.83;10.67;;;24.50;99.90;;;;;;4971853;28;20435;-64
2022/08/05 04:06:41;;;;;;;11.13;6.63;;;24.70;99.90;;;;;;4971759;28;20452;-60
2022/08/05 04:09:07;;;;;;;16.00;7.57;;;24.70;99.90;;;;;;4971007;28;20444;-59
2022/08/05 04:11:35;;;;;;;9.47;6.97;;;24.80;99.90;;;;;;4972015;28;20496;-58
2022/08/05 04:14:01;;;;;;;16.50;7.00;;;24.80;99.90;;;;;;4971899;28;20419;-61
2022/08/05 04:16:27;;;;;;;25.73;7.00;;;24.90;99.90;;;;;;4972520;28;20897;-59
2022/08/05 04:18:53;;;;;;;34.27;8.33;;;24.90;99.90;;;;;;4971039;28;20425;-62
2022/08/05 04:21:19;;;;;;;16.73;6.90;;;25.00;99.90;;;;;;4973819;28;20423;-58
2022/08/05 04:23:45;;;;;;;18.83;6.13;;;25.00;99.90;;;;;;4964524;28;20959;-61
2022/08/05 04:26:13;;;;;;;28.90;8.00;;;25.00;99.90;;;;;;4971376;28;20197;-60
2022/08/05 04:28:39;;;;;;;23.33;7.27;;;25.00;99.90;;;;;;4967414;28;20200;-59
2022/08/05 04:31:05;;;;;;;20.30;6.70;;;25.10;99.90;;;;;;4971145;28;20408;-58
2022/08/05 04:33:30;;;;;;;16.67;6.13;;;25.20;99.90;;;;;;4971309;28;20170;-59
2022/08/05 04:35:56;;;;;;;15.07;6.67;;;25.20;99.90;;;;;;4971597;28;20776;-61
2022/08/05 04:38:22;;;;;;;7.80;6.33;;;25.30;99.90;;;;;;4970289;28;20189;-56
2022/08/05 04:40:48;;;;;;;6.83;5.97;;;25.30;99.90;;;;;;4970593;28;20532;-59
2022/08/05 04:43:13;;;;;;;8.60;4.93;;;25.30;99.90;;;;;;4965917;28;20173;-56
2022/08/05 04:45:39;;;;;;;5.20;4.67;;;25.30;99.90;;;;;;4965627;28;20198;-58
2022/08/05 04:48:13;;;;;;;11.37;5.13;;;25.30;99.90;;;;;;4962190;28;20584;-59
2022/08/05 04:50:44;;;;;;;8.47;4.93;;;25.30;99.90;;;;;;4958289;28;20531;-57
2022/08/05 04:53:12;;;;;;;20.77;5.70;;;25.30;99.90;;;;;;4958232;28;20451;-63
2022/08/05 04:55:39;;;;;;;6.93;5.47;;;25.30;99.90;;;;;;4967899;28;20419;-62
2022/08/05 04:58:08;;;;;;;14.93;6.17;;;25.20;99.90;;;;;;4964696;28;20945;-62
2022/08/05 05:00:36;;;;;;;19.03;6.03;;;25.30;99.90;;;;;;4967037;28;20516;-63
2022/08/05 05:03:02;;;;;;;14.83;5.37;;;25.20;99.90;;;;;;4966158;28;20447;-61
2022/08/05 05:05:29;;;;;;;10.47;5.30;;;25.20;99.90;;;;;;4967294;28;20455;-64
2022/08/05 05:08:07;;;;;;;11.47;4.77;;;25.30;99.90;;;;;;4966512;28;20539;-58
2022/08/05 05:10:40;;;;;;;12.10;5.30;;;25.40;99.90;;;;;;4965936;28;20925;-61
2022/08/05 05:13:08;;;;;;;6.57;4.60;;;25.40;99.90;;;;;;4966940;28;20424;-62
2022/08/05 05:15:34;;;;;;;20.67;5.70;;;25.30;99.90;;;;;;4967370;28;20455;-62
2022/08/05 05:18:00;;;;;;;17.30;6.23;;;25.50;99.90;;;;;;4970833;28;20487;-65
2022/08/05 05:20:25;;;;;;;13.37;5.67;;;25.50;99.90;;;;;;4963470;28;20256;-61
2022/08/05 05:22:51;;;;;;;10.13;5.30;;;25.40;99.90;;;;;;4970740;28;20192;-64
2022/08/05 05:25:16;;;;;;;12.40;5.17;;;25.30;99.90;;;;;;4971316;28;20177;-64
2022/08/05 05:27:42;;;;;;;17.00;6.37;;;25.30;99.90;;;;;;4970180;28;20296;-62
2022/08/05 05:30:09;;;;;;;45.07;8.43;;;25.30;99.90;;;;;;4970626;28;20173;-65
2022/08/05 05:32:34;;;;;;;15.90;6.43;;;25.40;99.90;;;;;;4971255;28;20165;-64
2022/08/05 05:35:00;;;;;;;31.50;6.60;;;25.40;99.90;;;;;;4968864;28;20865;-63
2022/08/05 05:37:26;;;;;;;11.77;5.07;;;25.50;99.90;;;;;;4970015;28;20744;-61
2022/08/05 05:39:51;;;;;;;15.00;5.80;;;25.50;99.90;;;;;;4971082;28;20177;-62
2022/08/05 05:42:17;;;;;;;27.23;6.27;;;25.50;99.90;;;;;;4971261;28;20185;-62
2022/08/05 05:44:43;;;;;;;27.57;7.80;;;25.50;99.90;;;;;;4970627;28;20232;-65
2022/08/05 05:47:08;;;;;;;6.47;5.07;;;25.60;99.90;;;;;;4970612;28;20205;-65
2022/08/05 05:49:34;;;;;;;11.53;5.10;;;25.60;99.90;;;;;;4971153;28;20174;-61
2022/08/05 05:52:00;;;;;;;17.03;6.17;;;25.60;99.90;;;;;;4970715;28;20575;-60
2022/08/05 05:54:26;;;;;;;8.40;5.60;;;25.60;99.90;;;;;;4971224;28;20539;-64
2022/08/05 05:56:51;;;;;;;7.07;5.10;;;25.70;99.90;;;;;;4969655;28;20427;-65
2022/08/05 05:59:17;;;;;;;7.00;4.97;;;25.70;99.90;;;;;;4966341;28;20279;-61
2022/08/05 06:01:43;;;;;;;38.43;8.20;;;25.60;99.90;;;;;;4970480;28;20185;-63
2022/08/05 06:04:11;;;;;;;19.90;6.10;;;25.60;99.90;;;;;;4969989;28;20255;-58
2022/08/05 06:06:37;;;;;;;38.07;7.80;;;25.60;99.90;;;;;;4970381;28;20228;-59
2022/08/05 06:09:04;;;;;;;12.77;5.23;;;25.60;99.90;;;;;;4970671;28;20475;-64
2022/08/05 06:11:34;;;;;;;10.47;4.87;;;25.60;99.90;;;;;;4971972;28;20428;-61
2022/08/05 06:14:00;;;;;;;12.43;5.50;;;25.70;99.90;;;;;;4970402;28;21176;-60
2022/08/05 06:16:26;;;;;;;10.57;5.40;;;25.70;99.90;;;;;;4969249;28;20437;-58
2022/08/05 06:18:52;;;;;;;11.50;5.87;;;25.60;99.90;;;;;;4970153;28;21006;-60
2022/08/05 06:21:18;;;;;;;5.50;4.40;;;25.60;99.90;;;;;;4968036;28;20428;-64
2022/08/05 06:23:44;;;;;;;7.10;5.00;;;25.70;99.90;;;;;;4967864;28;20176;-64
2022/08/05 06:26:10;;;;;;;17.03;4.90;;;25.60;99.90;;;;;;4968373;28;20240;-62
2022/08/05 06:28:36;;;;;;;6.77;4.80;;;25.70;99.90;;;;;;4970797;28;20251;-62
2022/08/05 06:31:02;;;;;;;12.07;4.70;;;25.70;99.90;;;;;;4973012;28;20474;-64
2022/08/05 06:33:28;;;;;;;9.30;4.80;;;25.70;99.90;;;;;;4972449;28;20181;-65
2022/08/05 06:35:54;;;;;;;25.97;6.00;;;25.80;99.90;;;;;;4972059;28;20789;-62
2022/08/05 06:38:20;;;;;;;10.77;4.33;;;25.80;99.90;;;;;;4970828;28;20305;-62
2022/08/05 06:40:45;;;;;;;13.50;5.23;;;25.90;99.90;;;;;;4972705;28;20185;-63
2022/08/05 06:43:12;;;;;;;6.53;4.50;;;26.00;99.90;;;;;;4972779;28;20213;-62
2022/08/05 06:45:38;;;;;;;14.50;6.13;;;26.10;99.90;;;;;;4972680;28;20642;-60
2022/08/05 06:48:04;;;;;;;9.40;4.63;;;26.20;99.90;;;;;;4972219;28;20604;-61
2022/08/05 06:50:29;;;;;;;4.90;4.30;;;26.30;99.90;;;;;;4972264;28;20264;-61
2022/08/05 06:52:55;;;;;;;6.43;4.40;;;26.30;99.90;;;;;;4971869;28;20249;-64
2022/08/05 06:55:21;;;;;;;6.33;4.37;;;26.30;99.90;;;;;;4966419;28;20165;-64
2022/08/05 06:57:47;;;;;;;8.00;4.90;;;26.20;99.90;;;;;;4971432;28;20275;-65
2022/08/05 07:00:13;;;;;;;8.57;5.00;;;26.40;99.90;;;;;;4971230;28;20684;-61
2022/08/05 07:02:46;;;;;;;4.80;4.30;;;26.50;99.90;;;;;;4970074;28;20215;-62
2022/08/05 07:05:12;;;;;;;6.93;5.00;;;26.50;99.90;;;;;;4970899;28;20421;-62
2022/08/05 07:07:42;;;;;;;5.53;4.80;;;26.40;99.90;;;;;;4971243;28;20480;-61
2022/08/05 07:10:09;;;;;;;7.83;4.43;;;26.30;99.90;;;;;;4972174;28;20424;-61
2022/08/05 07:18:03;;;;;;;5.77;4.60;;;26.40;99.90;;;;;;4971267;28;20532;-61
2022/08/05 07:20:29;;;;;;;5.87;5.27;;;26.50;99.90;;;;;;4966283;28;20503;-59
2022/08/05 07:22:54;;;;;;;13.00;5.43;;;26.70;99.90;;;;;;4971296;28;20177;-61
2022/08/05 07:25:20;;;;;;;5.60;5.00;;;27.00;99.90;;;;;;4972180;28;20180;-62
2022/08/05 07:27:51;;;;;;;8.63;5.20;;;27.20;99.90;;;;;;4969551;28;20208;-62
2022/08/05 07:30:17;;;;;;;10.13;4.60;;;27.50;99.90;;;;;;4963897;28;20193;-61
2022/08/05 07:32:43;;;;;;;8.90;4.60;;;27.50;99.90;;;;;;4972028;28;20855;-62
2022/08/05 07:35:10;;;;;;;11.40;4.70;;;27.50;99.90;;;;;;4970820;28;20712;-60
2022/08/05 07:37:37;;;;;;;4.87;4.00;;;27.40;99.90;;;;;;4952074;28;20610;-62
2022/08/05 07:40:04;;;;;;;9.70;5.63;;;27.40;99.90;;;;;;4959248;28;20424;-63
2022/08/05 07:42:30;;;;;;;8.83;4.93;;;27.30;99.90;;;;;;4972098;28;20471;-60
2022/08/05 07:44:55;;;;;;;5.57;4.00;;;27.40;99.90;;;;;;4970700;28;20824;-63
2022/08/05 07:47:21;;;;;;;8.00;3.97;;;27.80;99.90;;;;;;4952824;28;20291;-58
2022/08/05 07:49:47;;;;;;;20.57;5.40;;;28.10;99.90;;;;;;4970302;28;20174;-61
2022/08/05 07:52:13;;;;;;;21.80;5.40;;;28.00;99.90;;;;;;4970363;28;20421;-62
2022/08/05 07:54:39;;;;;;;6.93;4.10;;;27.90;99.90;;;;;;4970313;28;21694;-63
2022/08/05 07:57:05;;;;;;;4.87;3.73;;;27.90;99.90;;;;;;4970106;28;20255;-64
2022/08/05 07:59:31;;;;;;;50.17;7.43;;;27.70;99.90;;;;;;4970636;28;20197;-64
2022/08/05 08:01:56;;;;;;;10.97;3.93;;;28.10;99.90;;;;;;4970812;28;20455;-62
2022/08/05 08:04:22;;;;;;;26.70;6.23;;;27.80;99.90;;;;;;4970716;28;20253;-63
2022/08/05 08:06:48;;;;;;;32.93;7.77;;;28.00;99.90;;;;;;4970027;28;20281;-62
2022/08/05 08:09:13;;;;;;;34.40;6.37;;;28.90;99.90;;;;;;4969686;28;20189;-64
2022/08/05 08:11:39;;;;;;;23.97;6.37;;;29.20;99.90;;;;;;4970672;28;20177;-64
2022/08/05 08:14:05;;;;;;;5.83;4.33;;;29.30;99.90;;;;;;4970021;28;20227;-63
2022/08/05 08:16:31;;;;;;;5.70;4.00;;;29.30;99.90;;;;;;4970529;28;20741;-62
2022/08/05 08:18:56;;;;;;;7.80;4.03;;;29.70;99.90;;;;;;4969548;28;20437;-63
2022/08/05 08:21:23;;;;;;;40.60;7.20;;;29.40;99.90;;;;;;4970552;28;20177;-63
2022/08/05 08:23:50;;;;;;;19.33;5.50;;;29.20;99.90;;;;;;4970285;28;20303;-63
2022/08/05 08:26:15;;;;;;;15.33;5.20;;;29.40;99.90;;;;;;4962959;28;21186;-63
2022/08/05 08:28:41;;;;;;;13.50;4.33;;;29.00;99.90;;;;;;4969602;28;20523;-64
2022/08/05 08:31:07;;;;;;;33.67;5.83;;;28.50;99.90;;;;;;4970166;28;20287;-64
2022/08/05 08:33:33;;;;;;;31.37;6.90;;;28.60;99.90;;;;;;4970111;28;20177;-63
2022/08/05 08:35:59;;;;;;;15.27;4.30;;;29.50;99.90;;;;;;4970216;28;20420;-63
2022/08/05 08:38:25;;;;;;;38.30;7.63;;;30.00;98.60;;;;;;4969209;28;20454;-63
2022/08/05 08:40:51;;;;;;;48.80;7.70;;;30.20;96.30;;;;;;4970277;28;20212;-64
2022/08/05 08:43:18;;;;;;;28.87;6.63;;;30.40;93.80;;;;;;4970508;28;20172;-64
2022/08/05 08:45:44;;;;;;;9.17;3.57;;;30.60;91.20;;;;;;4970213;28;20229;-64
2022/08/05 08:48:14;;;;;;;28.53;6.57;;;30.60;88.00;;;;;;4969379;28;20432;-63
2022/08/05 08:50:43;;;;;;;5.30;3.87;;;30.70;83.90;;;;;;4969609;28;21010;-64
2022/08/05 08:53:13;;;;;;;11.83;4.30;;;30.80;82.90;;;;;;4969369;28;20416;-63
2022/08/05 08:55:40;;;;;;;11.30;4.63;;;30.90;78.30;;;;;;4970406;28;20424;-63
2022/08/05 08:58:05;;;;;;;25.67;6.10;;;31.00;75.10;;;;;;4969635;28;20436;-65
2022/08/05 09:00:32;;;;;;;12.23;4.07;;;30.80;72.80;;;;;;4970265;28;20511;-65
2022/08/05 09:02:58;;;;;;;26.93;5.00;;;30.70;70.50;;;;;;4969620;28;20256;-63
2022/08/05 09:05:24;;;;;;;6.37;3.63;;;30.80;68.70;;;;;;4970045;28;20424;-66
2022/08/05 09:07:51;;;;;;;23.53;6.10;;;30.90;67.50;;;;;;4969610;28;20481;-64
2022/08/05 09:41:27;;;;;;;10.00;3.80;;;30.90;50.00;;;;;;4957446;28;20505;-63
2022/08/05 09:43:53;;;;;;;15.53;3.80;;;31.40;46.90;;;;;;4954046;28;20462;-63
2022/08/05 09:46:37;;;;;;;67.43;9.40;;;31.70;44.60;;;;;;4971206;28;20216;-61
2022/08/05 09:49:05;;;;;;;46.40;7.20;;;31.90;42.30;;;;;;4970420;28;20247;-64
2022/08/05 09:51:33;;;;;;;5.40;3.20;;;32.10;40.80;;;;;;4970736;28;20434;-63
2022/08/05 09:54:00;;;;;;;12.93;3.60;;;32.20;37.70;;;;;;4969763;28;20768;-62
2022/08/05 09:56:28;;;;;;;8.20;3.70;;;31.70;35.10;;;;;;4968969;28;20232;-62
2022/08/05 09:59:01;;;;;;;14.13;4.40;;;31.60;33.60;;;;;;4968140;28;20443;-63
2022/08/05 10:01:28;;;;;;;9.97;3.73;;;31.80;33.30;;;;;;4970395;28;20451;-64
2022/08/05 10:04:03;;;;;;;22.07;8.97;;;32.10;32.50;;;;;;4973249;28;20181;-64
2022/08/05 10:06:30;;;;;;;12.00;4.57;;;32.40;31.50;;;;;;4973069;28;20467;-65
2022/08/05 10:09:12;;;;;;;12.67;4.33;;;32.50;30.00;;;;;;4970981;28;20448;-65
2022/08/05 10:11:39;;;;;;;6.63;3.60;;;32.40;28.60;;;;;;4973018;28;20511;-63
2022/08/05 10:14:26;;;;;;;5.07;3.00;;;30.70;26.30;;;;;;4972698;28;20821;-64
2022/08/05 10:16:55;;;;;;;8.60;3.50;;;30.30;26.10;;;;;;4972155;28;20893;-63
2022/08/05 10:19:21;;;;;;;6.17;3.30;;;30.30;27.40;;;;;;4972652;28;20869;-61
2022/08/05 10:21:48;;;;;;;8.10;3.47;;;30.50;27.60;;;;;;4964004;28;20424;-63
2022/08/05 10:24:19;;;;;;;2.97;2.67;;;30.60;27.80;;;;;;4973030;28;20433;-61
2022/08/05 10:26:46;;;;;;;6.33;3.50;;;30.60;28.70;;;;;;4972772;28;20482;-65
2022/08/05 10:29:12;;;;;;;6.80;3.80;;;31.00;28.10;;;;;;4972521;28;20782;-62
2022/08/05 10:31:38;;;;;;;3.50;3.20;;;31.40;29.00;;;;;;4972683;28;20492;-61
2022/08/05 10:34:06;;;;;;;28.93;6.27;;;31.40;27.60;;;;;;4973195;28;20197;-64
2022/08/05 10:36:34;;;;;;;4.43;3.07;;;31.40;28.10;;;;;;4973487;28;21246;-65
2022/08/05 10:39:05;;;;;;;4.30;3.10;;;31.40;26.90;;;;;;4971645;28;20459;-64
2022/08/05 10:41:36;;;;;;;9.20;3.27;;;30.90;26.10;;;;;;4973023;28;20455;-62
2022/08/05 10:44:10;;;;;;;12.43;4.10;;;31.20;26.70;;;;;;4967342;28;20925;-64
2022/08/05 10:47:12;;;;;;;6.60;3.80;;;31.40;26.50;;;;;;4972013;28;20550;-63
2022/08/05 10:50:14;;;;;;;32.30;5.10;;;31.80;26.40;;;;;;4972017;28;20405;-64
2022/08/05 10:52:46;;;;;;;4.20;3.33;;;32.20;24.90;;;;;;4950048;28;20806;-65
2022/08/05 10:55:13;;;;;;;17.43;5.33;;;32.00;23.40;;;;;;4971214;28;20420;-63
2022/08/05 10:57:44;;;;;;;11.53;4.30;;;32.00;23.40;;;;;;4971729;28;20603;-64
2022/08/05 11:00:13;;;;;;;9.00;3.83;;;32.00;22.50;;;;;;4971988;28;20169;-63
2022/08/05 11:03:04;;;;;;;10.13;3.97;;;31.40;20.40;;;;;;4972595;28;20185;-65
2022/08/05 11:05:31;;;;;;;6.93;3.77;;;31.00;20.00;;;;;;4971855;28;20557;-64
2022/08/05 11:07:58;;;;;;;8.20;3.50;;;31.20;20.90;;;;;;4971384;28;20732;-63
2022/08/05 11:10:25;;;;;;;5.27;3.50;;;31.40;20.80;;;;;;4971805;28;20965;-64
2022/08/05 11:12:52;;;;;;;15.93;4.17;;;31.50;20.70;;;;;;4967216;28;20428;-64
2022/08/05 11:15:20;;;;;;;5.57;3.40;;;31.50;20.30;;;;;;4972304;28;20205;-64
2022/08/05 11:17:51;;;;;;;5.10;3.33;;;31.30;20.00;;;;;;4972039;28;20462;-64
2022/08/05 11:20:44;;;;;;;10.33;4.10;;;31.00;19.90;;;;;;4972114;28;20943;-64
2022/08/05 11:23:28;;;;;;;7.03;3.00;;;31.40;19.80;;;;;;4966643;28;20884;-64
2022/08/05 11:26:01;;;;;;;11.67;4.30;;;31.80;19.00;;;;;;4969137;28;20492;-64
2022/08/05 11:28:26;;;;;;;10.40;3.93;;;32.10;18.20;;;;;;4969985;28;20444;-64
2022/08/05 11:30:55;;;;;;;52.90;10.17;;;32.20;17.80;;;;;;4972694;28;20411;-64
2022/08/05 11:33:32;;;;;;;38.37;6.03;;;32.40;17.50;;;;;;4971567;28;20185;-65
2022/08/05 11:36:02;;;;;;;22.27;5.37;;;32.50;17.10;;;;;;4972423;28;20680;-64
2022/08/05 11:38:43;;;;;;;6.20;3.20;;;32.70;16.20;;;;;;4972413;28;20448;-64
2022/08/05 11:41:17;;;;;;;20.30;4.67;;;32.70;15.80;;;;;;4967241;28;20570;-62
2022/08/05 11:44:06;;;;;;;30.40;6.27;;;32.50;14.50;;;;;;4972695;28;20492;-63
2022/08/05 11:46:38;;;;;;;4.50;3.80;;;32.50;14.50;;;;;;4972419;28;20304;-63
2022/08/05 11:49:06;;;;;;;3.73;3.43;;;32.20;13.50;;;;;;4969282;28;20193;-64
2022/08/05 11:51:33;;;;;;;5.13;3.50;;;32.00;13.90;;;;;;4971112;28;20184;-64
2022/08/05 11:54:00;;;;;;;4.80;3.07;;;32.10;14.00;;;;;;4972152;28;20272;-63
2022/08/05 11:56:44;;;;;;;21.50;4.97;;;31.90;12.90;;;;;;4971407;28;20184;-62
2022/08/05 11:59:37;;;;;;;4.97;3.40;;;31.70;13.30;;;;;;4966093;28;20542;-64
2022/08/05 12:02:04;;;;;;;54.73;9.00;;;31.90;13.10;;;;;;4963425;28;20304;-64
2022/08/05 12:04:37;;;;;;;5.93;3.40;;;32.00;13.20;;;;;;4971154;28;20264;-64
2022/08/05 12:07:04;;;;;;;4.60;3.90;;;31.90;12.90;;;;;;4964957;28;20324;-64
2022/08/05 12:09:36;;;;;;;9.90;4.03;;;31.90;12.90;;;;;;4971356;28;20187;-65
2022/08/05 12:12:03;;;;;;;15.10;4.40;;;32.00;12.60;;;;;;4960982;28;20412;-64
2022/08/05 12:14:37;;;;;;;3.57;3.27;;;32.10;12.20;;;;;;4968688;28;20594;-64
2022/08/05 12:17:11;;;;;;;4.67;3.30;;;31.60;12.00;;;;;;4968358;28;20308;-64
2022/08/05 12:19:52;;;;;;;6.43;3.90;;;31.50;11.90;;;;;;4966139;28;20421;-63
2022/08/05 12:22:19;;;;;;;5.60;3.90;;;31.40;11.90;;;;;;4966151;28;20546;-62
2022/08/05 12:24:48;;;;;;;4.90;3.30;;;31.20;21.90;;;;;;4970736;28;20180;-63
2022/08/05 12:27:28;;;;;;;3.67;3.30;;;31.20;12.40;;;;;;4961031;28;20475;-64
2022/08/05 12:30:07;;;;;;;7.80;3.43;;;31.10;12.50;;;;;;4969451;28;20780;-64
2022/08/05 12:32:34;;;;;;;23.43;5.47;;;31.40;12.90;;;;;;4968050;28;20520;-65
2022/08/05 12:35:06;;;;;;;3.77;3.13;;;31.40;14.00;;;;;;4970787;28;20416;-62
2022/08/05 12:37:32;;;;;;;3.97;3.00;;;31.60;13.30;;;;;;4968665;28;20459;-64
2022/08/05 12:39:58;;;;;;;4.37;3.40;;;31.60;13.70;;;;;;4968628;28;20420;-64
2022/08/05 12:42:28;;;;;;;4.43;3.67;;;31.50;13.50;;;;;;4969035;28;20272;-60
2022/08/05 12:45:09;;;;;;;5.10;3.90;;;31.50;12.30;;;;;;4969048;28;20644;-66
2022/08/05 12:47:35;;;;;;;7.30;3.90;;;31.10;11.60;;;;;;4970383;28;20455;-61
2022/08/05 12:50:15;;;;;;;6.00;3.90;;;31.20;12.50;;;;;;4966207;28;20753;-65
2022/08/05 12:52:41;;;;;;;6.83;3.20;;;31.40;13.50;;;;;;4968685;28;20424;-63
2022/08/05 12:55:20;;;;;;;10.47;4.63;;;31.60;12.90;;;;;;4969493;28;20536;-64
2022/08/05 12:57:46;;;;;;;8.40;4.20;;;31.60;13.00;;;;;;4969467;28;20629;-63
2022/08/05 13:00:22;;;;;;;7.10;4.67;;;31.90;13.60;;;;;;4968713;28;20448;-63
2022/08/05 13:02:48;;;;;;;7.70;3.60;;;32.10;13.40;;;;;;4970250;28;20181;-62
2022/08/05 13:05:14;;;;;;;22.00;5.80;;;31.90;12.00;;;;;;4970742;28;20278;-62
2022/08/05 13:07:40;;;;;;;4.27;3.30;;;31.90;11.80;;;;;;4969050;28;20262;-63
2022/08/05 13:10:13;;;;;;;10.97;4.20;;;31.90;12.30;;;;;;4970303;28;20172;-64
2022/08/05 13:12:41;;;;;;;5.77;3.97;;;31.90;11.60;;;;;;4963079;28;20617;-64
2022/08/05 13:15:09;;;;;;;14.83;4.53;;;32.00;11.70;;;;;;4970234;28;20416;-64
2022/08/05 13:17:36;;;;;;;28.27;6.73;;;32.20;12.00;;;;;;4961064;28;20627;-65
2022/08/05 13:20:08;;;;;;;3.87;3.47;;;32.20;12.00;;;;;;4966169;28;20165;-62
2022/08/05 13:22:39;;;;;;;12.07;4.43;;;32.30;11.90;;;;;;4967211;28;20169;-62
2022/08/05 13:25:08;;;;;;;6.20;3.80;;;32.30;11.40;;;;;;4970435;28;20219;-64
2022/08/05 13:27:38;;;;;;;11.80;4.30;;;32.30;11.50;;;;;;4969681;28;20235;-64
2022/08/05 13:30:15;;;;;;;13.00;4.83;;;32.30;11.30;;;;;;4970071;28;20186;-64